Time;durP1;ratioP1;P1;durP2;ratioP2;P2;SDS_P1;SDS_P2;PMS_P1;PMS_P2;Temp;Humidity;BMP_temperature;BMP_pressure;BME280_temperature;BME280_humidity;BME280_pressure;Samples;Min_cycle;Max_cycle;Signal;HPM_P1;HPM_P2
2023/06/18 00:01:42;;;;;;;21.30;13.70;;;;;;;-144.73;100.00;54346.13;4957009;28;20043;-73
2023/06/18 00:04:07;;;;;;;19.83;13.50;;;;;;;-144.73;100.00;54321.50;4953521;28;20030;-71
2023/06/18 00:06:33;;;;;;;20.23;13.23;;;;;;;-144.73;100.00;54370.75;4959474;28;20029;-73
2023/06/18 00:08:58;;;;;;;17.67;13.90;;;;;;;-144.73;100.00;54342.03;4971040;28;20030;-73
2023/06/18 00:11:24;;;;;;;18.88;13.65;;;;;;;-144.73;100.00;54378.97;4951336;28;20027;-71
2023/06/18 00:13:49;;;;;;;22.40;14.15;;;;;;;-144.73;100.00;54342.03;4967084;28;20027;-71
2023/06/18 00:16:14;;;;;;;18.60;13.27;;;;;;;-144.73;100.00;54337.91;4951796;28;20117;-72
2023/06/18 00:18:40;;;;;;;18.08;14.00;;;;;;;-144.73;100.00;54374.84;4949809;28;20039;-71
2023/06/18 00:21:07;;;;;;;20.50;13.75;;;;;;;-144.73;100.00;54342.03;4968505;28;20074;-71
2023/06/18 00:23:34;;;;;;;20.50;15.15;;;;;;;-144.73;100.00;54366.66;4948565;28;20061;-71
2023/06/18 00:26:00;;;;;;;19.55;14.32;;;;;;;-144.73;100.00;54337.91;4948686;28;20019;-71
2023/06/18 00:28:25;;;;;;;23.98;15.00;;;;;;;-144.73;100.00;54370.75;4951434;28;20030;-71
2023/06/18 00:30:50;;;;;;;18.13;14.32;;;;;;;-144.73;100.00;54362.53;4953103;28;20053;-71
2023/06/18 00:33:16;;;;;;;32.88;15.10;;;;;;;-144.73;100.00;54337.91;4952496;28;20034;-71
2023/06/18 00:35:42;;;;;;;16.92;13.50;;;;;;;-144.73;100.00;54358.44;4953499;28;20034;-72
2023/06/18 00:38:07;;;;;;;19.45;13.38;;;;;;;-144.73;100.00;54383.06;4970181;28;20058;-72
2023/06/18 00:40:33;;;;;;;17.00;13.70;;;;;;;-144.73;100.00;54339.97;4965652;28;20029;-72
2023/06/18 00:42:58;;;;;;;23.33;14.57;;;;;;;-144.73;100.00;54325.59;4951112;28;20126;-72
2023/06/18 00:45:24;;;;;;;18.67;14.23;;;;;;;-144.73;100.00;54366.66;4951537;28;20027;-72
2023/06/18 00:47:49;;;;;;;18.50;14.45;;;;;;;-144.73;100.00;54374.84;4954307;28;20038;-72
2023/06/18 00:50:18;;;;;;;17.63;13.77;;;;;;;-144.73;100.00;54374.84;4948306;28;20042;-72
2023/06/18 00:52:47;;;;;;;19.77;14.98;;;;;;;-144.73;100.00;54354.34;4948805;28;20562;-72
2023/06/18 00:55:17;;;;;;;22.73;14.45;;;;;;;-144.73;100.00;54329.72;4970164;28;20111;-72
2023/06/18 00:57:59;;;;;;;17.45;14.27;;;;;;;-144.73;100.00;54358.44;4964300;28;20031;-72
2023/06/18 01:00:25;;;;;;;26.02;17.65;;;;;;;-144.73;100.00;54337.91;4969961;28;20487;-72
2023/06/18 01:02:53;;;;;;;26.30;15.77;;;;;;;-144.73;100.00;54344.06;4952894;28;20538;-72
2023/06/18 01:05:20;;;;;;;26.95;15.88;;;;;;;-144.73;100.00;54342.03;4954808;28;20030;-72
2023/06/18 01:07:49;;;;;;;18.40;14.85;;;;;;;-144.73;100.00;54329.72;4973616;28;20128;-72
2023/06/18 01:10:15;;;;;;;19.48;15.07;;;;;;;-144.73;100.00;54366.66;4971738;28;20044;-72
2023/06/18 01:12:48;;;;;;;22.92;16.00;;;;;;;-144.73;100.00;54358.44;4954315;28;20030;-73
2023/06/18 01:15:17;;;;;;;26.60;16.02;;;;;;;-144.73;100.00;54358.44;4956771;28;20046;-73
2023/06/18 01:17:47;;;;;;;19.80;15.38;;;;;;;-144.73;100.00;54385.13;4951732;28;20035;-73
2023/06/18 01:20:16;;;;;;;17.35;14.70;;;;;;;-144.73;100.00;54370.75;4974212;28;20038;-73
2023/06/18 01:22:51;;;;;;;25.20;15.85;;;;;;;-144.73;100.00;54383.06;4952925;28;20101;-73
2023/06/18 01:25:18;;;;;;;23.50;16.27;;;;;;;-144.73;100.00;54395.38;4976170;28;20085;-73
2023/06/18 01:27:45;;;;;;;23.33;15.82;;;;;;;-144.73;100.00;54395.38;4956199;28;20109;-73
2023/06/18 01:30:11;;;;;;;25.02;16.05;;;;;;;-144.73;100.00;54331.75;4956122;28;20114;-72
2023/06/18 01:32:38;;;;;;;22.65;16.95;;;;;;;-144.73;100.00;54342.03;4973158;28;20034;-72
2023/06/18 01:35:04;;;;;;;22.80;16.67;;;;;;;-144.73;100.00;54370.75;4972705;28;20152;-72
2023/06/18 01:37:45;;;;;;;22.17;16.17;;;;;;;-144.73;100.00;54344.06;4973517;28;20117;-72
2023/06/18 01:40:32;;;;;;;22.40;15.68;;;;;;;-144.73;100.00;54378.97;4953701;28;20390;-72
2023/06/18 01:43:21;;;;;;;19.95;15.52;;;;;;;-144.73;100.00;54383.06;4973118;28;20062;-72
2023/06/18 01:46:04;;;;;;;24.00;15.20;;;;;;;-144.73;100.00;54383.06;4952283;28;20019;-72
2023/06/18 01:48:51;;;;;;;20.65;15.45;;;;;;;-144.73;100.00;54342.03;4971956;28;20031;-72
2023/06/18 01:51:19;;;;;;;21.33;13.68;;;;;;;-144.73;100.00;54376.91;4956115;28;20023;-72
2023/06/18 01:53:46;;;;;;;19.13;14.20;;;;;;;-144.73;100.00;54333.81;4961694;28;20034;-72
2023/06/18 01:56:13;;;;;;;21.73;15.60;;;;;;;-144.73;100.00;54354.34;4973646;28;20049;-72
2023/06/18 01:58:42;;;;;;;17.45;14.50;;;;;;;-144.73;100.00;54383.06;4955532;28;20081;-72
2023/06/18 02:01:09;;;;;;;22.98;15.55;;;;;;;-144.73;100.00;54358.44;4963719;28;20162;-72
2023/06/18 02:03:35;;;;;;;21.85;15.48;;;;;;;-144.73;100.00;54319.44;4952749;28;20475;-72
2023/06/18 02:06:01;;;;;;;21.10;15.73;;;;;;;-144.73;100.00;54366.66;4974149;28;20081;-72
2023/06/18 02:08:26;;;;;;;23.65;17.50;;;;;;;-144.73;100.00;54407.69;4965357;28;20369;-72
2023/06/18 02:10:52;;;;;;;19.30;15.02;;;;;;;-144.73;100.00;54352.28;4968459;28;20023;-72
2023/06/18 02:13:18;;;;;;;18.73;14.85;;;;;;;-144.73;100.00;54366.66;4964871;28;20042;-72
2023/06/18 02:15:43;;;;;;;21.25;15.38;;;;;;;-144.73;100.00;54344.06;4955415;28;20214;-72
2023/06/18 02:18:11;;;;;;;19.83;15.23;;;;;;;-144.73;100.00;54366.66;4955296;28;20031;-72
2023/06/18 02:20:41;;;;;;;21.00;16.27;;;;;;;-144.73;100.00;54381.00;4955533;28;20026;-72
2023/06/18 02:23:07;;;;;;;21.33;16.48;;;;;;;-144.73;100.00;54358.44;4974572;28;20116;-72
2023/06/18 02:25:33;;;;;;;25.35;15.57;;;;;;;-144.73;100.00;54288.66;4956496;28;20428;-72
2023/06/18 02:28:00;;;;;;;17.20;14.30;;;;;;;-144.73;100.00;54346.13;4960177;28;20070;-72
2023/06/18 02:30:26;;;;;;;23.77;16.80;;;;;;;-144.73;100.00;54342.03;4964638;28;20098;-72
2023/06/18 02:32:52;;;;;;;21.00;15.48;;;;;;;-144.73;100.00;54362.53;4954689;28;20114;-72
2023/06/18 02:35:18;;;;;;;21.92;16.77;;;;;;;-144.73;100.00;54366.66;4958677;28;20026;-72
2023/06/18 02:37:44;;;;;;;26.83;17.00;;;;;;;-144.73;100.00;54358.44;4955063;28;20041;-72
2023/06/18 02:40:11;;;;;;;21.20;15.93;;;;;;;-144.73;100.00;54383.06;4972146;28;20073;-72
2023/06/18 02:42:37;;;;;;;22.75;16.65;;;;;;;-144.73;100.00;54378.97;4971531;28;20049;-72
2023/06/18 02:45:03;;;;;;;21.80;15.20;;;;;;;-144.73;100.00;54383.06;4972313;28;20022;-72
2023/06/18 02:47:28;;;;;;;27.05;17.00;;;;;;;-144.73;100.00;54383.06;4954894;28;20090;-72
2023/06/18 02:49:55;;;;;;;20.88;16.00;;;;;;;-144.73;100.00;54397.44;4954702;28;20026;-72
2023/06/18 02:52:20;;;;;;;20.13;15.77;;;;;;;-144.73;100.00;54370.75;4968247;28;20114;-72
2023/06/18 02:54:45;;;;;;;24.02;16.75;;;;;;;-144.73;100.00;54346.13;4958380;28;20101;-72
2023/06/18 02:57:11;;;;;;;25.95;17.65;;;;;;;-144.73;100.00;54358.44;4972206;28;20031;-72
2023/06/18 02:59:36;;;;;;;26.33;18.25;;;;;;;-144.73;100.00;54366.66;4955507;28;20034;-72
2023/06/18 03:02:04;;;;;;;24.33;17.27;;;;;;;-144.73;100.00;54383.06;4971221;28;20039;-72
2023/06/18 03:04:29;;;;;;;23.42;18.77;;;;;;;-144.73;100.00;54366.66;4958336;28;20034;-72
2023/06/18 03:06:58;;;;;;;23.77;17.90;;;;;;;-144.73;100.00;54337.91;4971879;28;20034;-72
2023/06/18 03:09:23;;;;;;;24.88;16.52;;;;;;;-144.73;100.00;54358.44;4971848;28;20138;-72
2023/06/18 03:11:49;;;;;;;30.40;16.70;;;;;;;-144.73;100.00;54397.44;4951174;28;20116;-72
2023/06/18 03:14:14;;;;;;;23.23;15.93;;;;;;;-144.73;100.00;54374.84;4954454;28;20059;-72
2023/06/18 03:16:39;;;;;;;23.95;16.25;;;;;;;-144.73;100.00;54387.19;4972289;28;20061;-72
2023/06/18 03:19:05;;;;;;;22.80;15.48;;;;;;;-144.73;100.00;54370.75;4972048;28;20107;-72
2023/06/18 03:21:30;;;;;;;22.80;16.23;;;;;;;-144.73;100.00;54333.81;4956571;28;20022;-72
2023/06/18 03:23:56;;;;;;;25.25;16.20;;;;;;;-144.73;100.00;54354.34;4954503;28;20018;-72
2023/06/18 03:26:21;;;;;;;21.33;16.25;;;;;;;-144.73;100.00;54383.06;4953727;28;20022;-72
2023/06/18 03:28:47;;;;;;;23.60;17.50;;;;;;;-144.73;100.00;54391.28;4954171;28;20076;-72
2023/06/18 03:31:13;;;;;;;22.40;16.42;;;;;;;-144.73;100.00;54387.19;4953901;28;20046;-72
2023/06/18 03:33:38;;;;;;;23.98;16.50;;;;;;;-144.73;100.00;54407.69;4971287;28;20034;-73
2023/06/18 03:36:05;;;;;;;19.25;16.33;;;;;;;-144.73;100.00;54415.91;4971686;28;20018;-72
2023/06/18 03:38:31;;;;;;;24.58;17.88;;;;;;;-144.73;100.00;54385.13;4952957;28;20039;-72
2023/06/18 03:40:56;;;;;;;20.90;17.23;;;;;;;-144.73;100.00;54346.13;4954425;28;20046;-72
2023/06/18 03:43:21;;;;;;;24.80;18.08;;;;;;;-144.73;100.00;54360.50;4970860;28;20034;-72
2023/06/18 03:45:47;;;;;;;28.85;18.02;;;;;;;-144.73;100.00;54411.81;4954142;28;20106;-71
2023/06/18 03:48:12;;;;;;;21.33;18.08;;;;;;;-144.73;100.00;54368.69;4970719;28;20063;-71
2023/06/18 03:50:38;;;;;;;23.17;16.70;;;;;;;-144.73;100.00;54354.34;4951549;28;20026;-72
2023/06/18 03:53:03;;;;;;;23.83;18.05;;;;;;;-144.73;100.00;54346.13;4972732;28;20065;-72
2023/06/18 03:55:28;;;;;;;26.92;17.45;;;;;;;-144.73;100.00;54366.66;4955804;28;20027;-72
2023/06/18 03:57:53;;;;;;;23.73;16.02;;;;;;;-144.73;100.00;54420.00;4952471;28;20034;-72
2023/06/18 04:00:19;;;;;;;25.70;17.77;;;;;;;-144.73;100.00;54383.06;4953867;28;20066;-72
2023/06/18 04:02:45;;;;;;;25.27;17.40;;;;;;;-144.73;100.00;54389.22;4953718;28;20126;-72
2023/06/18 04:05:10;;;;;;;21.25;16.73;;;;;;;-144.73;100.00;54350.22;4971017;28;20037;-72
2023/06/18 04:07:36;;;;;;;24.75;16.85;;;;;;;-144.73;100.00;54391.28;4970465;28;20059;-72
2023/06/18 04:10:02;;;;;;;21.25;16.58;;;;;;;-144.73;100.00;54428.22;4955074;28;20050;-72
2023/06/18 04:12:27;;;;;;;22.63;17.83;;;;;;;-144.73;100.00;54436.44;4952853;28;20046;-72
2023/06/18 04:14:52;;;;;;;18.00;15.15;;;;;;;-144.73;100.00;54370.75;4971016;28;20046;-72
2023/06/18 04:17:18;;;;;;;19.55;16.88;;;;;;;-144.73;100.00;54387.19;4952106;28;20035;-72
2023/06/18 04:19:43;;;;;;;26.85;18.17;;;;;;;-144.73;100.00;54391.28;4953634;28;20038;-72
2023/06/18 04:22:08;;;;;;;22.48;17.20;;;;;;;-144.73;100.00;54342.03;4972151;28;20046;-71
2023/06/18 04:24:34;;;;;;;20.33;15.88;;;;;;;-144.73;100.00;54395.38;4956359;28;20035;-72
2023/06/18 04:26:59;;;;;;;25.20;15.80;;;;;;;-144.73;100.00;54346.13;4954453;28;20094;-72
2023/06/18 04:29:24;;;;;;;21.25;16.27;;;;;;;-144.73;100.00;54407.69;4953503;28;20118;-72
2023/06/18 04:31:50;;;;;;;23.58;17.58;;;;;;;-144.73;100.00;54350.22;4973455;28;20122;-72
2023/06/18 04:34:16;;;;;;;21.52;16.63;;;;;;;-144.73;100.00;54374.84;4956686;28;20114;-72
2023/06/18 04:36:41;;;;;;;22.23;16.52;;;;;;;-144.73;100.00;54356.38;4953186;28;20030;-72
2023/06/18 04:39:07;;;;;;;18.70;15.40;;;;;;;-144.73;100.00;54420.00;4970381;28;20034;-72
2023/06/18 04:41:32;;;;;;;23.35;17.60;;;;;;;-144.73;100.00;54358.44;4958180;28;20019;-72
2023/06/18 04:43:58;;;;;;;25.40;16.77;;;;;;;-144.73;100.00;54383.06;4974676;28;20033;-72
2023/06/18 04:46:23;;;;;;;19.50;15.13;;;;;;;-144.73;100.00;54383.06;4957284;28;20105;-72
2023/06/18 04:48:48;;;;;;;21.80;16.23;;;;;;;-144.73;100.00;54350.22;4974943;28;20022;-72
2023/06/18 04:51:14;;;;;;;20.45;14.70;;;;;;;-144.73;100.00;54362.53;4957218;28;20026;-72
2023/06/18 04:53:40;;;;;;;22.23;16.30;;;;;;;-144.73;100.00;54387.19;4956312;28;20581;-72
2023/06/18 04:56:06;;;;;;;19.63;15.60;;;;;;;-144.73;100.00;54323.53;4957434;28;20034;-72
2023/06/18 04:58:36;;;;;;;19.80;16.13;;;;;;;-144.73;100.00;54350.22;4959732;28;20043;-72
2023/06/18 05:01:02;;;;;;;26.10;16.02;;;;;;;-144.73;100.00;54399.50;4956711;28;20057;-72
2023/06/18 05:03:27;;;;;;;23.40;15.23;;;;;;;-144.73;100.00;54393.34;4953723;28;20031;-73
2023/06/18 05:05:53;;;;;;;23.15;14.73;;;;;;;-144.73;100.00;54415.91;4974039;28;20038;-73
2023/06/18 05:08:18;;;;;;;20.92;15.27;;;;;;;-144.73;100.00;54391.28;4956491;28;20154;-73
2023/06/18 05:10:43;;;;;;;20.77;15.43;;;;;;;-144.73;100.00;54378.97;4953860;28;20041;-73
2023/06/18 05:13:09;;;;;;;25.77;16.80;;;;;;;-144.73;100.00;54366.66;4954458;28;20035;-73
2023/06/18 05:15:34;;;;;;;26.05;15.60;;;;;;;-144.73;100.00;54395.38;4971206;28;20038;-72
2023/06/18 05:18:00;;;;;;;17.75;14.02;;;;;;;-144.73;100.00;54374.84;4970487;28;20027;-72
2023/06/18 05:20:26;;;;;;;21.08;14.73;;;;;;;-144.73;100.00;54350.22;4970676;28;20027;-72
2023/06/18 05:22:51;;;;;;;23.77;14.88;;;;;;;-144.73;100.00;54337.91;4956472;28;20046;-72
2023/06/18 05:25:16;;;;;;;17.08;13.40;;;;;;;-144.73;100.00;54383.06;4971152;28;20113;-72
2023/06/18 05:27:41;;;;;;;17.05;13.52;;;;;;;-144.73;100.00;54370.75;4972085;28;20047;-72
2023/06/18 05:30:07;;;;;;;19.85;13.30;;;;;;;-144.73;100.00;54362.53;4976993;28;20046;-72
2023/06/18 05:32:33;;;;;;;18.65;14.07;;;;;;;-144.73;100.00;54362.53;4952856;28;20038;-72
2023/06/18 05:34:58;;;;;;;16.85;14.32;;;;;;;-144.73;100.00;54387.19;4958020;28;20026;-72
2023/06/18 05:37:24;;;;;;;17.40;13.55;;;;;;;-144.73;100.00;54350.22;4955881;28;20043;-72
2023/06/18 05:39:52;;;;;;;17.63;13.00;;;;;;;-144.73;100.00;54366.66;4952808;28;20022;-72
2023/06/18 05:42:18;;;;;;;14.68;12.73;;;;;;;-144.73;100.00;54350.22;4958529;28;20039;-72
2023/06/18 05:44:43;;;;;;;16.88;12.40;;;;;;;-144.73;100.00;54362.53;4970554;28;20049;-72
2023/06/18 05:47:09;;;;;;;18.08;13.02;;;;;;;-144.73;100.00;54378.97;4953489;28;20404;-73
2023/06/18 05:49:34;;;;;;;25.40;12.85;;;;;;;-144.73;100.00;54344.06;4958886;28;20035;-73
2023/06/18 05:52:00;;;;;;;16.20;12.38;;;;;;;-144.73;100.00;54387.19;4955486;28;20405;-73
2023/06/18 05:54:26;;;;;;;18.67;11.88;;;;;;;-144.73;100.00;54368.69;4951512;28;20081;-72
2023/06/18 05:56:51;;;;;;;17.75;12.82;;;;;;;-144.73;100.00;54370.75;4972322;28;20141;-73
2023/06/18 05:59:17;;;;;;;16.90;13.70;;;;;;;-144.73;100.00;54366.66;4970266;28;20065;-73
2023/06/18 06:01:43;;;;;;;21.33;12.90;;;;;;;-144.73;100.00;54378.97;4972433;28;20038;-72
2023/06/18 06:04:08;;;;;;;16.67;12.77;;;;;;;-144.73;100.00;54360.50;4959153;28;20045;-71
2023/06/18 06:06:34;;;;;;;16.98;12.50;;;;;;;-144.73;100.00;54323.53;4960560;28;20038;-72
2023/06/18 06:09:00;;;;;;;16.08;11.90;;;;;;;-144.73;100.00;54395.38;4956526;28;20024;-72
2023/06/18 06:11:25;;;;;;;18.63;12.27;;;;;;;-144.73;100.00;54354.34;4954988;28;20027;-72
2023/06/18 06:13:51;;;;;;;16.73;11.65;;;;;;;-144.73;100.00;54395.38;4953513;28;20085;-72
2023/06/18 06:16:16;;;;;;;17.13;11.27;;;;;;;-144.73;100.00;54372.81;4970252;28;20026;-72
2023/06/18 06:18:42;;;;;;;17.42;12.43;;;;;;;-144.73;99.60;54383.06;4952708;28;20062;-73
2023/06/18 06:21:07;;;;;;;13.15;10.75;;;;;;;-144.73;99.63;54354.34;4958525;28;20100;-73
2023/06/18 06:23:33;;;;;;;15.73;10.43;;;;;;;-144.73;98.37;54362.53;4950465;28;20034;-74
2023/06/18 06:25:59;;;;;;;12.15;9.23;;;;;;;-144.73;98.13;54350.22;4970766;28;20042;-73
2023/06/18 06:28:25;;;;;;;13.65;9.70;;;;;;;-144.73;94.10;54348.19;4947361;28;20035;-72
2023/06/18 06:30:50;;;;;;;15.23;8.70;;;;;;;-144.73;91.96;54362.53;4969541;28;20077;-72
2023/06/18 06:33:16;;;;;;;17.20;8.00;;;;;;;-144.73;91.82;54362.53;4954835;28;20031;-72
2023/06/18 06:35:41;;;;;;;10.10;8.20;;;;;;;-144.73;92.92;54370.75;4952454;28;20472;-72
2023/06/18 06:38:06;;;;;;;16.15;8.88;;;;;;;-144.73;92.70;54337.91;4956917;28;20054;-72
2023/06/18 06:40:32;;;;;;;11.25;9.02;;;;;;;-144.73;90.66;54313.28;4956281;28;20019;-72
2023/06/18 06:42:58;;;;;;;14.45;10.35;;;;;;;-144.73;92.12;54354.34;4947783;28;20074;-72
2023/06/18 06:45:24;;;;;;;11.85;9.35;;;;;;;-144.73;90.57;54378.97;4949512;28;20029;-72
2023/06/18 06:47:49;;;;;;;16.88;9.25;;;;;;;-144.73;90.85;54346.13;4954914;28;20054;-72
2023/06/18 06:50:15;;;;;;;14.95;8.63;;;;;;;-144.73;89.61;54383.06;4955790;28;20022;-73
2023/06/18 06:52:40;;;;;;;13.98;9.82;;;;;;;-144.73;88.65;54321.50;4957748;28;20039;-73
2023/06/18 06:55:06;;;;;;;11.43;9.20;;;;;;;-144.73;88.21;54313.28;4951801;28;20030;-73
2023/06/18 06:57:31;;;;;;;12.63;9.48;;;;;;;-144.73;85.41;54333.81;4965556;28;20035;-73
2023/06/18 06:59:57;;;;;;;19.70;10.57;;;;;;;-144.73;84.30;54325.59;4948192;28;20059;-73
2023/06/18 07:02:22;;;;;;;10.45;8.23;;;;;;;-144.73;80.84;54317.38;4953299;28;20046;-71
2023/06/18 07:04:48;;;;;;;14.40;8.05;;;;;;;-144.73;81.78;54352.28;4955086;28;20113;-71
2023/06/18 07:07:14;;;;;;;14.27;8.27;;;;;;;-144.73;81.18;54329.72;4954393;28;20073;-71
2023/06/18 07:09:39;;;;;;;19.20;9.98;;;;;;;-144.73;80.79;54337.91;4954954;28;20081;-71
2023/06/18 07:12:05;;;;;;;14.10;9.02;;;;;;;-144.73;79.35;54317.38;4971440;28;20042;-71
2023/06/18 07:14:30;;;;;;;11.63;7.25;;;;;;;-144.73;78.89;54309.19;4970056;28;20027;-71
2023/06/18 07:16:57;;;;;;;10.52;7.30;;;;;;;-144.73;78.28;54303.03;4968644;28;20053;-71
2023/06/18 07:19:22;;;;;;;14.15;7.47;;;;;;;-144.73;76.60;54354.34;4955133;28;20050;-71
2023/06/18 07:21:47;;;;;;;9.57;7.43;;;;;;;-144.73;74.67;54342.03;4953913;28;20043;-71
2023/06/18 07:24:13;;;;;;;10.23;7.03;;;;;;;-144.73;73.90;54313.28;4952379;28;20039;-71
2023/06/18 07:26:38;;;;;;;9.88;7.00;;;;;;;-144.73;74.42;54313.28;4969942;28;20563;-71
2023/06/18 07:29:03;;;;;;;8.57;6.47;;;;;;;-144.73;72.47;54284.56;4950457;28;20022;-71
2023/06/18 07:31:29;;;;;;;7.30;6.18;;;;;;;-144.73;71.54;54286.59;4952936;28;20119;-71
2023/06/18 07:33:55;;;;;;;8.00;5.47;;;;;;;-144.73;65.17;54288.66;4956150;28;20053;-71
2023/06/18 07:36:21;;;;;;;7.00;6.22;;;;;;;-144.73;64.95;54276.34;4950470;28;20023;-71
2023/06/18 07:38:48;;;;;;;8.70;5.43;;;;;;;-144.73;63.80;54276.34;4953171;28;20050;-71
2023/06/18 07:41:13;;;;;;;7.82;5.53;;;;;;;-144.73;61.13;54296.88;4950839;28;20046;-72
2023/06/18 07:43:40;;;;;;;8.57;5.38;;;;;;;-144.73;58.60;54300.97;4950947;28;20057;-71
2023/06/18 07:46:06;;;;;;;6.03;5.43;;;;;;;-144.73;58.69;54276.34;4954588;28;20026;-71
2023/06/18 07:48:31;;;;;;;5.80;4.72;;;;;;;-144.73;52.46;54280.44;4953165;28;20113;-71
2023/06/18 07:50:57;;;;;;;7.47;4.93;;;;;;;-144.73;49.55;54284.56;4954000;28;20042;-71
2023/06/18 07:53:22;;;;;;;6.75;4.43;;;;;;;-144.73;51.53;54259.91;4951057;28;20056;-71
2023/06/18 07:55:48;;;;;;;8.80;5.20;;;;;;;-144.73;53.49;54268.13;4955220;28;20019;-72
2023/06/18 07:58:13;;;;;;;7.82;4.88;;;;;;;-144.73;52.46;54251.72;4951166;28;20039;-72
2023/06/18 08:00:38;;;;;;;20.02;4.90;;;;;;;-144.73;49.25;54288.66;4954312;28;20033;-72
2023/06/18 08:03:04;;;;;;;9.57;5.70;;;;;;;-144.73;50.53;54264.03;4953472;28;20249;-72
2023/06/18 08:05:29;;;;;;;8.27;5.35;;;;;;;-144.73;51.08;54313.28;4954597;28;20031;-70
2023/06/18 08:07:55;;;;;;;6.93;4.90;;;;;;;-144.73;50.41;54233.25;4966700;28;20419;-72
2023/06/18 08:10:20;;;;;;;8.48;5.22;;;;;;;-144.73;50.21;54266.06;4951072;28;20050;-70
2023/06/18 08:12:46;;;;;;;5.88;4.80;;;;;;;-144.73;49.46;54243.50;4953798;28;20031;-74
2023/06/18 08:15:11;;;;;;;9.48;5.13;;;;;;;-144.73;49.59;54227.09;4974148;28;20027;-75
2023/06/18 08:17:36;;;;;;;6.63;4.70;;;;;;;-144.73;48.07;54245.56;4948339;28;20078;-76
2023/06/18 08:20:03;;;;;;;7.82;4.82;;;;;;;-144.73;47.98;54259.91;4950953;28;20115;-74
2023/06/18 08:22:29;;;;;;;5.97;4.78;;;;;;;-144.73;47.82;54247.59;4969664;28;20043;-77
2023/06/18 08:24:54;;;;;;;10.68;5.10;;;;;;;-144.73;48.58;54280.44;4954891;28;20026;-77
2023/06/18 08:27:20;;;;;;;11.68;5.38;;;;;;;-144.73;48.68;54247.59;4947911;28;20046;-76
2023/06/18 08:29:45;;;;;;;8.18;4.88;;;;;;;-144.73;46.87;54296.88;4962627;28;20387;-77
2023/06/18 08:32:10;;;;;;;11.15;5.00;;;;;;;-144.73;47.99;54233.25;4952893;28;20035;-76
2023/06/18 08:34:42;;;;;;;5.60;4.72;;;;;;;-144.73;47.42;54276.34;4950405;28;20023;-76
2023/06/18 08:37:10;;;;;;;10.57;4.82;;;;;;;-144.73;46.61;54284.56;4969350;28;20054;-76
2023/06/18 08:39:36;;;;;;;11.77;5.63;;;;;;;-144.73;47.76;54284.56;4946628;28;20045;-79
2023/06/18 08:42:01;;;;;;;6.95;5.68;;;;;;;-144.73;52.25;54292.75;4951714;28;20039;-76
2023/06/18 08:44:29;;;;;;;11.13;6.07;;;;;;;-144.73;52.80;54259.91;4954704;28;20042;-75
2023/06/18 08:47:00;;;;;;;6.07;5.20;;;;;;;-144.73;50.59;54276.34;4974936;28;20047;-78
2023/06/18 08:49:27;;;;;;;8.57;7.07;;;;;;;-144.73;50.73;54259.91;4959687;28;20019;-77
2023/06/18 08:52:14;;;;;;;11.35;4.90;;;;;;;-144.73;48.96;54303.03;4969653;28;20035;-76
2023/06/18 08:54:40;;;;;;;11.70;5.50;;;;;;;-144.73;49.11;54218.88;4973891;28;20014;-74
2023/06/18 08:57:15;;;;;;;6.97;4.55;;;;;;;-144.73;49.82;54259.91;4967661;28;20035;-74
2023/06/18 08:59:42;;;;;;;6.20;4.45;;;;;;;-144.73;49.40;54266.06;4949531;28;20483;-76
2023/06/18 09:02:10;;;;;;;6.55;4.88;;;;;;;-144.73;48.39;54233.25;4952943;28;20042;-74
2023/06/18 09:04:37;;;;;;;6.65;5.13;;;;;;;-144.73;48.80;54300.97;4957190;28;20022;-74
2023/06/18 09:07:02;;;;;;;10.18;5.80;;;;;;;-144.73;46.76;54243.50;4955973;28;20041;-73
2023/06/18 09:09:29;;;;;;;8.93;5.15;;;;;;;-144.73;48.08;54284.56;4968648;28;20097;-75
2023/06/18 09:11:55;;;;;;;8.10;5.35;;;;;;;-144.73;48.63;54259.91;4953817;28;20458;-79
2023/06/18 09:14:21;;;;;;;6.88;5.47;;;;;;;-144.73;46.55;54222.97;4943136;28;20075;-79
2023/06/18 09:16:47;;;;;;;14.98;5.20;;;;;;;-144.73;45.90;54202.44;4940051;28;20069;-77
2023/06/18 09:19:16;;;;;;;8.68;5.25;;;;;;;-144.73;44.66;54239.41;4972309;28;20019;-78
2023/06/18 09:21:43;;;;;;;7.97;5.95;;;;;;;-144.73;45.62;54235.28;4940916;28;20059;-78
2023/06/18 09:24:23;;;;;;;11.18;6.20;;;;;;;-144.73;45.23;54206.56;4938709;28;20028;-77
2023/06/18 09:27:00;;;;;;;6.10;4.72;;;;;;;-144.73;44.93;54165.50;4964550;28;20031;-77
2023/06/18 09:29:30;;;;;;;10.30;5.57;;;;;;;-144.73;44.48;54190.13;4952720;29;20451;-78
2023/06/18 09:31:55;;;;;;;6.85;5.05;;;;;;;-144.73;42.97;54190.13;4940087;29;20040;-77
2023/06/18 09:34:21;;;;;;;7.95;4.50;;;;;;;-144.73;39.11;54239.41;4953458;28;20034;-76
2023/06/18 09:36:48;;;;;;;5.75;4.78;;;;;;;-144.73;40.19;54202.44;4948996;28;20034;-77
2023/06/18 09:39:22;;;;;;;8.00;4.53;;;;;;;-144.73;38.57;54218.88;4958185;28;20390;-77
2023/06/18 09:41:49;;;;;;;5.28;4.78;;;;;;;-144.73;38.21;54198.34;4940969;28;20046;-78
2023/06/18 09:44:19;;;;;;;6.38;4.68;;;;;;;-144.73;39.04;54198.34;4951998;28;20038;-78
2023/06/18 09:46:46;;;;;;;7.22;4.88;;;;;;;-144.73;38.74;54202.44;4958214;28;20047;-78
2023/06/18 09:49:19;;;;;;;7.72;4.45;;;;;;;-144.73;37.42;54233.25;4955901;28;20458;-77
2023/06/18 09:51:46;;;;;;;7.82;4.55;;;;;;;-144.73;37.20;54222.97;4957994;28;20035;-78
2023/06/18 09:54:11;;;;;;;5.07;3.88;;;;;;;-144.73;36.42;54247.59;4944456;28;20140;-77
2023/06/18 09:56:38;;;;;;;6.47;4.15;;;;;;;-144.73;37.39;54231.19;4961330;28;20058;-77
2023/06/18 09:59:04;;;;;;;7.55;4.53;;;;;;;-144.73;39.45;54202.44;4969653;28;20077;-78
2023/06/18 10:01:44;;;;;;;8.90;4.90;;;;;;;-144.73;39.56;54210.66;4973979;28;20026;-78
2023/06/18 10:04:10;;;;;;;6.70;4.53;;;;;;;-144.73;39.08;54210.66;4958087;28;20117;-77
2023/06/18 10:06:38;;;;;;;5.82;4.22;;;;;;;-144.73;40.11;54229.13;4974242;28;20125;-78
2023/06/18 10:09:08;;;;;;;6.60;4.22;;;;;;;-144.73;41.35;54210.66;4959666;28;20039;-77
2023/06/18 10:11:35;;;;;;;7.95;4.85;;;;;;;-144.73;40.70;54210.66;4958331;28;20031;-77
2023/06/18 10:14:08;;;;;;;6.38;4.63;;;;;;;-144.73;39.80;54198.34;4958714;28;20023;-77
2023/06/18 10:16:34;;;;;;;9.60;6.00;;;;;;;-144.73;41.65;54227.09;4956347;28;20027;-77
2023/06/18 10:19:13;;;;;;;9.10;5.32;;;;;;;-144.73;41.40;54188.09;4965906;28;20023;-78
2023/06/18 10:21:46;;;;;;;7.32;5.00;;;;;;;-144.73;43.11;54214.78;4946811;28;20044;-78
2023/06/18 10:24:16;;;;;;;6.07;5.22;;;;;;;-144.73;43.52;54231.19;4958444;28;20027;-78
2023/06/18 10:26:42;;;;;;;8.43;5.10;;;;;;;-144.73;42.77;54177.81;4957664;28;20034;-77
2023/06/18 10:29:10;;;;;;;9.18;5.28;;;;;;;-144.73;42.16;54190.13;4954818;28;20020;-79
2023/06/18 10:31:37;;;;;;;9.13;5.72;;;;;;;-144.73;42.46;54210.66;4956682;28;20025;-77
2023/06/18 10:34:03;;;;;;;6.90;5.90;;;;;;;-144.73;42.11;54231.19;4957181;28;20033;-78
2023/06/18 10:36:29;;;;;;;7.97;5.38;;;;;;;-144.73;41.45;54216.81;4984091;28;20026;-77
2023/06/18 10:38:56;;;;;;;9.88;5.82;;;;;;;-144.73;40.10;54206.56;4957607;28;20022;-76
2023/06/18 10:41:22;;;;;;;9.40;5.93;;;;;;;-144.73;38.92;54177.81;4958755;28;20031;-77
2023/06/18 10:43:52;;;;;;;12.30;5.53;;;;;;;-144.73;38.19;54177.81;4955068;28;20059;-77
2023/06/18 10:46:18;;;;;;;15.00;9.98;;;;;;;-144.73;38.18;54186.03;4956167;28;20034;-77
2023/06/18 10:49:20;;;;;;;5.93;5.40;;;;;;;-144.73;38.13;54214.78;4957905;28;20499;-77
2023/06/18 10:51:57;;;;;;;;;;;;;;;-144.73;38.03;54210.66;4957350;28;20031;-77
2023/06/18 10:54:30;;;;;;;6.93;5.10;;;;;;;-144.73;40.36;54169.63;4957175;28;19910;-77
2023/06/18 10:56:57;;;;;;;8.45;4.90;;;;;;;-144.73;40.02;54206.56;4963703;28;20118;-77
2023/06/18 10:59:33;;;;;;;7.20;5.28;;;;;;;-144.73;39.17;54198.34;4975319;28;20058;-77
2023/06/18 11:01:59;;;;;;;6.78;4.78;;;;;;;-144.73;39.08;54190.13;4975350;28;20046;-74